首页
METAR-TAF:

METAR-TAF

机场 :

瓦加杜古, 布吉納法索

瓦加杜古國際機場

纬度: 12-21N, 经度: 001-31W, 海拔: 316米

当前天气观测

该预报发布于1小时和3分钟前的21:00 UTC
风速3节,风向东北
温度 24°C
湿度 24%
气压 1014 hPa
能見度: 2500
浮尘

METAR: DFFD 172100Z 04003KT 2500 DU NSC 24/02 Q1014 BECMG 4000 DU

时间: 22:03 (22:03 UTC)

预报

该预报发布于5小时和3分钟前的17:00 UTC
预报有效从17日的 18点(UTC)到 18日的 24点(UTC)
风速8节,风向
能見度: 2500
浮尘
成为
从 17日的 20点(UTC)到 17日的 22点(UTC)
能見度: 4000
浮尘
成为
从 18日的 04点(UTC)到 18日的 06点(UTC)
能見度: 1400
浮尘

TAF: DFFD 171700Z 1718/1824 09008KT 2500 DU NSC BECMG 1720/1722 4000 DU BECMG 1804/1806 1400 DU

超过4000个机场的气象观测和天气预报(METAR&TAF报告)。

可查询的气象台以黄色和红色小点在地图上表示。

将鼠标移到小点上方,可查看气象台名称。

然后点击查看天气观测和预报。

如需切换地图:点击带黑十字的绿色按钮放大地图;点击带横线的绿色按钮缩小地图;或者点击绿色箭头查看邻近地区的地图。


METAR-TAF: